Central City, South Dakota
Current Conditions -  °F | °C
As of 7:55 PM on Monday 26 Jan 2015 (Local Time) from KSPF Reporting Station
Clear Clear  
Wind Chill: 55°   Ceiling: Unl
Heat Index: 55°   Visibility: 10mi
Dew Point: 27°   Wind: 10mph
Humidity: 33%   Direction: 250°WSW
Pressure: 30.02"   Gusts: NA
Location:  44.253°N, 103.912°W
Report Text: KSPF 270255Z AUTO 25009KT 10SM CLR 13/M03 A3002 RMK AO2
Loading
Personal Weather Stations






























Interactive Weather Map New forecast layout! Learn more

10-Day Weather Forecast

Advertisements
Track Severe Weather on mobile